sensor_id;sensor_type;location;lat;lon;timestamp;P1;durP1;ratioP1;P2;durP2;ratioP2
77248;SDS011;66280;45.124;20.718;2023-04-24T00:03:53;15.02;;;6.18;;
77248;SDS011;66280;45.124;20.718;2023-04-24T00:13:55;8.45;;;5.22;;
77248;SDS011;66280;45.124;20.718;2023-04-24T00:23:56;6.63;;;5.07;;
77248;SDS011;66280;45.124;20.718;2023-04-24T00:33:57;5.40;;;3.92;;
77248;SDS011;66280;45.124;20.718;2023-04-24T00:43:58;7.50;;;4.57;;
77248;SDS011;66280;45.124;20.718;2023-04-24T00:53:59;8.83;;;3.57;;
77248;SDS011;66280;45.124;20.718;2023-04-24T01:03:59;7.00;;;5.00;;
77248;SDS011;66280;45.124;20.718;2023-04-24T01:14:00;7.50;;;4.43;;
77248;SDS011;66280;45.124;20.718;2023-04-24T01:24:02;8.65;;;5.45;;
77248;SDS011;66280;45.124;20.718;2023-04-24T01:34:05;5.10;;;2.70;;
77248;SDS011;66280;45.124;20.718;2023-04-24T01:44:07;6.53;;;4.33;;
77248;SDS011;66280;45.124;20.718;2023-04-24T01:54:09;7.30;;;4.78;;
77248;SDS011;66280;45.124;20.718;2023-04-24T02:04:09;5.50;;;4.00;;
77248;SDS011;66280;45.124;20.718;2023-04-24T02:14:10;8.35;;;5.18;;
77248;SDS011;66280;45.124;20.718;2023-04-24T02:24:13;8.10;;;4.97;;
77248;SDS011;66280;45.124;20.718;2023-04-24T02:34:15;6.87;;;4.83;;
77248;SDS011;66280;45.124;20.718;2023-04-24T02:44:16;10.10;;;4.60;;
77248;SDS011;66280;45.124;20.718;2023-04-24T02:54:16;6.60;;;5.32;;
77248;SDS011;66280;45.124;20.718;2023-04-24T03:04:17;6.10;;;5.10;;
77248;SDS011;66280;45.124;20.718;2023-04-24T03:14:18;6.20;;;5.43;;
77248;SDS011;66280;45.124;20.718;2023-04-24T03:24:19;9.63;;;6.23;;
77248;SDS011;66280;45.124;20.718;2023-04-24T03:34:20;6.30;;;5.17;;
77248;SDS011;66280;45.124;20.718;2023-04-24T03:44:20;6.60;;;4.93;;
77248;SDS011;66280;45.124;20.718;2023-04-24T03:54:21;11.33;;;6.23;;
77248;SDS011;66280;45.124;20.718;2023-04-24T04:04:23;6.78;;;5.25;;
77248;SDS011;66280;45.124;20.718;2023-04-24T04:14:24;6.77;;;5.87;;
77248;SDS011;66280;45.124;20.718;2023-04-24T04:24:26;9.37;;;4.80;;
77248;SDS011;66280;45.124;20.718;2023-04-24T04:34:27;8.73;;;6.07;;
77248;SDS011;66280;45.124;20.718;2023-04-24T04:44:28;14.53;;;6.40;;
77248;SDS011;66280;45.124;20.718;2023-04-24T04:54:28;9.13;;;6.90;;
77248;SDS011;66280;45.124;20.718;2023-04-24T05:04:30;9.43;;;6.80;;
77248;SDS011;66280;45.124;20.718;2023-04-24T05:14:32;14.77;;;7.97;;
77248;SDS011;66280;45.124;20.718;2023-04-24T05:24:35;8.33;;;5.67;;
77248;SDS011;66280;45.124;20.718;2023-04-24T05:34:56;9.90;;;7.53;;
77248;SDS011;66280;45.124;20.718;2023-04-24T05:44:57;11.03;;;6.33;;
77248;SDS011;66280;45.124;20.718;2023-04-24T05:54:58;20.73;;;10.33;;
77248;SDS011;66280;45.124;20.718;2023-04-24T06:05:02;13.60;;;8.13;;
77248;SDS011;66280;45.124;20.718;2023-04-24T06:15:03;6.68;;;5.43;;
77248;SDS011;66280;45.124;20.718;2023-04-24T06:25:26;15.10;;;7.93;;
77248;SDS011;66280;45.124;20.718;2023-04-24T06:35:27;8.50;;;6.07;;
77248;SDS011;66280;45.124;20.718;2023-04-24T06:45:28;9.57;;;6.57;;
77248;SDS011;66280;45.124;20.718;2023-04-24T06:55:29;10.95;;;5.75;;
77248;SDS011;66280;45.124;20.718;2023-04-24T07:05:30;9.17;;;6.53;;
77248;SDS011;66280;45.124;20.718;2023-04-24T07:15:31;8.87;;;5.10;;
77248;SDS011;66280;45.124;20.718;2023-04-24T07:25:31;11.87;;;7.70;;
77248;SDS011;66280;45.124;20.718;2023-04-24T07:35:32;11.70;;;7.73;;
77248;SDS011;66280;45.124;20.718;2023-04-24T07:45:33;14.27;;;8.43;;
77248;SDS011;66280;45.124;20.718;2023-04-24T07:55:34;11.25;;;7.85;;
77248;SDS011;66280;45.124;20.718;2023-04-24T08:05:34;9.33;;;6.80;;
77248;SDS011;66280;45.124;20.718;2023-04-24T08:15:35;11.47;;;7.90;;
77248;SDS011;66280;45.124;20.718;2023-04-24T08:25:36;9.97;;;7.50;;
77248;SDS011;66280;45.124;20.718;2023-04-24T08:35:36;11.63;;;6.53;;
77248;SDS011;66280;45.124;20.718;2023-04-24T08:45:37;9.20;;;5.87;;
77248;SDS011;66280;45.124;20.718;2023-04-24T08:55:38;12.00;;;7.90;;
77248;SDS011;66280;45.124;20.718;2023-04-24T09:05:39;12.53;;;8.00;;
77248;SDS011;66280;45.124;20.718;2023-04-24T09:15:40;17.40;;;11.63;;
77248;SDS011;66280;45.124;20.718;2023-04-24T09:25:41;15.00;;;9.27;;
77248;SDS011;66280;45.124;20.718;2023-04-24T09:35:42;12.70;;;8.60;;
77248;SDS011;66280;45.124;20.718;2023-04-24T09:45:50;10.83;;;7.70;;
77248;SDS011;66280;45.124;20.718;2023-04-24T09:56:00;14.67;;;8.63;;
77248;SDS011;66280;45.124;20.718;2023-04-24T10:06:03;13.33;;;9.37;;
77248;SDS011;66280;45.124;20.718;2023-04-24T10:16:04;10.73;;;7.37;;
77248;SDS011;66280;45.124;20.718;2023-04-24T10:26:05;12.55;;;9.13;;
77248;SDS011;66280;45.124;20.718;2023-04-24T10:36:06;18.37;;;11.07;;
77248;SDS011;66280;45.124;20.718;2023-04-24T10:46:07;18.50;;;11.40;;
77248;SDS011;66280;45.124;20.718;2023-04-24T10:56:09;16.15;;;10.15;;
77248;SDS011;66280;45.124;20.718;2023-04-24T11:06:10;11.63;;;8.73;;
77248;SDS011;66280;45.124;20.718;2023-04-24T11:16:29;15.00;;;10.23;;
77248;SDS011;66280;45.124;20.718;2023-04-24T11:26:30;20.20;;;12.20;;
77248;SDS011;66280;45.124;20.718;2023-04-24T11:36:38;11.47;;;7.83;;
77248;SDS011;66280;45.124;20.718;2023-04-24T11:46:39;12.57;;;9.93;;
77248;SDS011;66280;45.124;20.718;2023-04-24T11:56:44;18.60;;;8.70;;
77248;SDS011;66280;45.124;20.718;2023-04-24T12:06:59;29.43;;;15.70;;
77248;SDS011;66280;45.124;20.718;2023-04-24T12:17:00;18.80;;;10.47;;
77248;SDS011;66280;45.124;20.718;2023-04-24T12:27:03;10.82;;;8.05;;
77248;SDS011;66280;45.124;20.718;2023-04-24T12:37:10;19.03;;;11.50;;
77248;SDS011;66280;45.124;20.718;2023-04-24T12:47:11;10.83;;;6.87;;
77248;SDS011;66280;45.124;20.718;2023-04-24T12:57:12;17.67;;;12.20;;
77248;SDS011;66280;45.124;20.718;2023-04-24T13:07:13;17.10;;;10.63;;
77248;SDS011;66280;45.124;20.718;2023-04-24T13:17:14;14.73;;;9.50;;
77248;SDS011;66280;45.124;20.718;2023-04-24T13:27:15;17.33;;;9.63;;
77248;SDS011;66280;45.124;20.718;2023-04-24T13:37:15;25.20;;;14.60;;
77248;SDS011;66280;45.124;20.718;2023-04-24T13:47:16;21.83;;;12.60;;
77248;SDS011;66280;45.124;20.718;2023-04-24T13:57:17;20.37;;;13.00;;
77248;SDS011;66280;45.124;20.718;2023-04-24T14:07:18;14.10;;;11.53;;
77248;SDS011;66280;45.124;20.718;2023-04-24T14:17:18;13.90;;;9.27;;
77248;SDS011;66280;45.124;20.718;2023-04-24T14:27:19;16.77;;;10.03;;
77248;SDS011;66280;45.124;20.718;2023-04-24T14:37:20;16.83;;;8.90;;
77248;SDS011;66280;45.124;20.718;2023-04-24T14:47:20;14.00;;;8.67;;
77248;SDS011;66280;45.124;20.718;2023-04-24T14:57:22;8.57;;;7.40;;
77248;SDS011;66280;45.124;20.718;2023-04-24T15:07:22;12.07;;;6.93;;
77248;SDS011;66280;45.124;20.718;2023-04-24T15:17:23;7.77;;;5.93;;
77248;SDS011;66280;45.124;20.718;2023-04-24T15:27:24;10.10;;;7.60;;
77248;SDS011;66280;45.124;20.718;2023-04-24T15:37:24;12.13;;;7.27;;
77248;SDS011;66280;45.124;20.718;2023-04-24T15:47:25;11.10;;;7.28;;
77248;SDS011;66280;45.124;20.718;2023-04-24T15:57:26;15.80;;;9.70;;
77248;SDS011;66280;45.124;20.718;2023-04-24T16:07:33;20.33;;;15.67;;
77248;SDS011;66280;45.124;20.718;2023-04-24T16:17:33;11.82;;;8.77;;
77248;SDS011;66280;45.124;20.718;2023-04-24T16:27:36;26.57;;;13.80;;
77248;SDS011;66280;45.124;20.718;2023-04-24T16:37:36;21.43;;;12.93;;
77248;SDS011;66280;45.124;20.718;2023-04-24T16:47:37;23.40;;;11.33;;
77248;SDS011;66280;45.124;20.718;2023-04-24T16:57:38;37.37;;;15.10;;
77248;SDS011;66280;45.124;20.718;2023-04-24T17:07:38;60.10;;;21.13;;
77248;SDS011;66280;45.124;20.718;2023-04-24T17:17:39;42.00;;;16.48;;
77248;SDS011;66280;45.124;20.718;2023-04-24T17:27:40;38.13;;;15.83;;
77248;SDS011;66280;45.124;20.718;2023-04-24T17:37:41;51.63;;;27.77;;
77248;SDS011;66280;45.124;20.718;2023-04-24T17:47:41;49.27;;;26.07;;
77248;SDS011;66280;45.124;20.718;2023-04-24T17:57:42;73.57;;;33.72;;
77248;SDS011;66280;45.124;20.718;2023-04-24T18:07:43;90.30;;;38.83;;
77248;SDS011;66280;45.124;20.718;2023-04-24T18:17:43;25.30;;;12.98;;
77248;SDS011;66280;45.124;20.718;2023-04-24T18:27:44;21.97;;;13.57;;
77248;SDS011;66280;45.124;20.718;2023-04-24T18:37:44;21.25;;;10.73;;
77248;SDS011;66280;45.124;20.718;2023-04-24T18:47:45;24.80;;;15.17;;
77248;SDS011;66280;45.124;20.718;2023-04-24T18:57:46;22.52;;;13.10;;
77248;SDS011;66280;45.124;20.718;2023-04-24T19:07:46;14.90;;;9.10;;
77248;SDS011;66280;45.124;20.718;2023-04-24T19:17:47;12.43;;;6.80;;
77248;SDS011;66280;45.124;20.718;2023-04-24T19:27:47;14.77;;;8.50;;
77248;SDS011;66280;45.124;20.718;2023-04-24T19:37:48;12.35;;;7.55;;
77248;SDS011;66280;45.124;20.718;2023-04-24T19:47:49;12.23;;;8.17;;
77248;SDS011;66280;45.124;20.718;2023-04-24T19:57:50;8.00;;;5.00;;
77248;SDS011;66280;45.124;20.718;2023-04-24T20:07:50;9.60;;;6.83;;
77248;SDS011;66280;45.124;20.718;2023-04-24T20:17:51;13.57;;;6.27;;
77248;SDS011;66280;45.124;20.718;2023-04-24T20:27:52;8.67;;;5.23;;
77248;SDS011;66280;45.124;20.718;2023-04-24T20:37:52;8.63;;;5.97;;
77248;SDS011;66280;45.124;20.718;2023-04-24T20:47:53;6.17;;;3.27;;
77248;SDS011;66280;45.124;20.718;2023-04-24T20:57:54;5.47;;;4.07;;
77248;SDS011;66280;45.124;20.718;2023-04-24T21:07:54;5.77;;;3.30;;
77248;SDS011;66280;45.124;20.718;2023-04-24T21:17:55;9.90;;;6.70;;
77248;SDS011;66280;45.124;20.718;2023-04-24T21:27:56;10.13;;;7.77;;
77248;SDS011;66280;45.124;20.718;2023-04-24T21:37:57;8.50;;;5.40;;
77248;SDS011;66280;45.124;20.718;2023-04-24T21:47:58;8.70;;;5.70;;
77248;SDS011;66280;45.124;20.718;2023-04-24T21:57:58;12.35;;;5.90;;
77248;SDS011;66280;45.124;20.718;2023-04-24T22:07:59;12.93;;;6.25;;
77248;SDS011;66280;45.124;20.718;2023-04-24T22:18:00;16.00;;;7.07;;
77248;SDS011;66280;45.124;20.718;2023-04-24T22:28:03;11.77;;;6.20;;
77248;SDS011;66280;45.124;20.718;2023-04-24T22:38:07;10.80;;;7.73;;
77248;SDS011;66280;45.124;20.718;2023-04-24T22:48:08;10.80;;;7.33;;
77248;SDS011;66280;45.124;20.718;2023-04-24T22:58:08;12.55;;;7.88;;
77248;SDS011;66280;45.124;20.718;2023-04-24T23:08:09;14.17;;;9.70;;
77248;SDS011;66280;45.124;20.718;2023-04-24T23:18:10;15.30;;;10.37;;
77248;SDS011;66280;45.124;20.718;2023-04-24T23:28:10;20.65;;;13.00;;
77248;SDS011;66280;45.124;20.718;2023-04-24T23:38:11;21.55;;;13.15;;
77248;SDS011;66280;45.124;20.718;2023-04-24T23:48:11;27.17;;;16.42;;
77248;SDS011;66280;45.124;20.718;2023-04-24T23:58:12;29.63;;;17.10;;
